createdAt,value
2023-03-17T00:01:51.141Z,85.46
2023-03-17T00:06:56.728Z,86.19
2023-03-17T00:12:00.781Z,86.70
2023-03-17T00:17:02.475Z,86.80
2023-03-17T00:22:06.726Z,86.65
2023-03-17T00:27:13.260Z,86.55
2023-03-17T00:32:17.686Z,86.70
2023-03-17T00:37:21.831Z,86.10
2023-03-17T00:42:26.814Z,86.67
2023-03-17T00:47:30.855Z,86.86
2023-03-17T00:52:36.242Z,87.49
2023-03-17T00:57:39.419Z,88.03
2023-03-17T01:02:41.435Z,87.97
2023-03-17T01:07:48.118Z,87.94
2023-03-17T01:12:53.352Z,88.64
2023-03-17T01:17:57.577Z,88.95
2023-03-17T01:23:00.520Z,89.52
2023-03-17T01:28:02.256Z,89.37
2023-03-17T01:33:08.479Z,89.73
2023-03-17T01:38:10.612Z,90.47
2023-03-17T01:43:12.514Z,90.22
2023-03-17T01:48:15.265Z,91.18
2023-03-17T01:53:20.467Z,91.64
2023-03-17T01:58:24.179Z,91.26
2023-03-17T02:03:29.819Z,91.20
2023-03-17T02:08:33.974Z,91.75
2023-03-17T02:13:37.216Z,91.70
2023-03-17T02:18:38.918Z,92.09
2023-03-17T02:23:43.679Z,92.14
2023-03-17T02:28:46.148Z,92.04
2023-03-17T02:33:47.889Z,92.85
2023-03-17T02:38:49.823Z,93.25
2023-03-17T02:43:56.935Z,93.09
2023-03-17T02:49:02.031Z,93.66
2023-03-17T02:54:06.367Z,94.84
2023-03-17T02:59:10.221Z,94.78
2023-03-17T03:04:12.012Z,94.79
2023-03-17T03:09:15.179Z,95.78
2023-03-17T03:14:17.038Z,95.45
2023-03-17T03:19:18.742Z,95.69
2023-03-17T03:24:22.924Z,95.73
2023-03-17T03:29:24.696Z,96.10
2023-03-17T03:34:33.197Z,96.47
2023-03-17T03:39:39.436Z,96.62
2023-03-17T03:44:43.230Z,96.51
2023-03-17T03:49:47.273Z,97.11
2023-03-17T03:54:51.213Z,97.55
2023-03-17T03:59:56.148Z,97.21
2023-03-17T04:05:00.090Z,97.97
2023-03-17T04:10:04.589Z,98.49
2023-03-17T04:15:09.147Z,98.23
2023-03-17T04:20:14.649Z,98.30
2023-03-17T04:25:21.630Z,98.87
2023-03-17T04:30:23.388Z,99.39
2023-03-17T04:35:25.098Z,99.41
2023-03-17T04:40:29.517Z,99.18
2023-03-17T04:45:33.750Z,99.35
2023-03-17T04:50:35.655Z,98.50
2023-03-17T04:55:37.551Z,98.47
2023-03-17T05:00:39.441Z,98.43
2023-03-17T05:05:41.144Z,98.40
2023-03-17T05:10:42.926Z,98.05
2023-03-17T05:15:47.743Z,97.84
2023-03-17T05:20:51.731Z,98.09
2023-03-17T05:25:53.734Z,98.00
2023-03-17T05:30:58.353Z,97.87
2023-03-17T05:36:02.434Z,97.42
2023-03-17T05:41:04.281Z,97.72
2023-03-17T05:46:06.060Z,97.15
2023-03-17T05:51:08.221Z,97.37
2023-03-17T05:56:12.786Z,97.51
2023-03-17T06:01:14.560Z,97.45
2023-03-17T06:06:18.710Z,97.33
2023-03-17T06:11:21.487Z,97.19
2023-03-17T06:16:23.381Z,97.43
2023-03-17T06:21:25.662Z,96.81
2023-03-17T06:26:29.684Z,97.27
2023-03-17T06:31:31.442Z,96.80
2023-03-17T06:36:33.656Z,96.69
2023-03-17T06:41:35.945Z,94.98
2023-03-17T06:46:40.064Z,94.57
2023-03-17T06:51:46.707Z,93.95
2023-03-17T06:56:48.388Z,92.01
2023-03-17T07:01:52.442Z,90.82
2023-03-17T07:06:54.536Z,90.02
2023-03-17T07:12:04.885Z,90.20
2023-03-17T07:17:12.144Z,90.20
2023-03-17T07:22:13.914Z,89.50
2023-03-17T07:27:18.816Z,88.32
2023-03-17T07:32:24.710Z,88.47
2023-03-17T07:37:26.416Z,88.51
2023-03-17T07:42:30.459Z,87.77
2023-03-17T07:47:34.510Z,87.13
2023-03-17T07:52:38.487Z,85.77
2023-03-17T07:57:43.411Z,85.19
2023-03-17T08:02:48.137Z,84.69
2023-03-17T08:07:53.722Z,83.78
2023-03-17T08:13:00.822Z,83.24
2023-03-17T08:18:02.519Z,82.94
2023-03-17T08:23:04.296Z,82.85
2023-03-17T08:28:09.475Z,82.23
2023-03-17T08:33:11.324Z,82.52
2023-03-17T08:38:16.086Z,82.43
2023-03-17T08:43:18.802Z,82.34
2023-03-17T08:48:23.089Z,81.89
2023-03-17T08:53:28.270Z,81.07
2023-03-17T08:58:30.206Z,79.36
2023-03-17T09:03:33.106Z,77.06
2023-03-17T09:08:38.637Z,76.62
2023-03-17T09:13:41.558Z,74.62
2023-03-17T09:18:44.455Z,75.20
2023-03-17T09:23:46.954Z,75.42
2023-03-17T09:28:51.524Z,74.89
2023-03-17T09:33:53.573Z,73.27
2023-03-17T09:38:55.402Z,71.08
2023-03-17T09:44:08.852Z,68.80
2023-03-17T09:49:15.078Z,66.20
2023-03-17T09:54:27.038Z,64.41
2023-03-17T09:59:34.438Z,61.02
2023-03-17T10:04:37.169Z,60.40
2023-03-17T10:09:54.061Z,60.30
2023-03-17T10:15:06.762Z,60.79
2023-03-17T10:20:13.703Z,59.55
2023-03-17T10:25:29.491Z,59.59
2023-03-17T10:30:34.537Z,59.46
2023-03-17T10:35:39.463Z,59.26
2023-03-17T10:40:55.635Z,58.69
2023-03-17T10:46:03.340Z,58.46
2023-03-17T10:51:13.277Z,58.79
2023-03-17T10:56:27.394Z,59.40
2023-03-17T11:01:29.414Z,59.32
2023-03-17T11:06:39.377Z,58.48
2023-03-17T11:11:47.059Z,58.30
2023-03-17T11:17:04.687Z,57.95
2023-03-17T11:22:21.736Z,57.32
2023-03-17T11:28:01.358Z,57.82
2023-03-17T11:33:35.452Z,57.06
2023-03-17T11:39:09.916Z,57.19
2023-03-17T11:44:37.192Z,55.61
2023-03-17T11:49:40.130Z,54.61
2023-03-17T11:55:07.880Z,52.20
2023-03-17T12:00:30.153Z,51.62
2023-03-17T12:05:37.283Z,49.32
2023-03-17T12:11:01.905Z,47.30
2023-03-17T12:16:29.441Z,45.79
2023-03-17T12:21:36.996Z,44.73
2023-03-17T12:26:52.783Z,43.29
2023-03-17T12:32:03.839Z,42.03
2023-03-17T12:37:05.724Z,41.45
2023-03-17T12:42:33.717Z,41.92
2023-03-17T12:47:57.275Z,45.48
2023-03-17T12:53:19.750Z,47.23
2023-03-17T12:58:44.101Z,44.30
2023-03-17T13:04:12.865Z,42.80
2023-03-17T13:09:30.250Z,40.96
2023-03-17T13:14:48.166Z,39.94
2023-03-17T13:20:00.674Z,39.59
2023-03-17T13:25:14.389Z,39.02
2023-03-17T13:30:26.925Z,38.82
2023-03-17T13:35:43.142Z,38.09
2023-03-17T13:40:57.015Z,40.03
2023-03-17T13:46:41.979Z,40.65
2023-03-17T13:51:59.417Z,42.47
2023-03-17T13:57:23.628Z,44.15
2023-03-17T14:02:27.947Z,44.31
2023-03-17T14:07:44.376Z,46.13
2023-03-17T14:12:55.219Z,46.20
2023-03-17T14:18:14.537Z,46.02
2023-03-17T14:23:18.606Z,44.77
2023-03-17T14:28:36.634Z,44.12
2023-03-17T14:33:42.386Z,42.08
2023-03-17T14:38:52.154Z,41.67
2023-03-17T14:43:58.476Z,42.03
2023-03-17T14:49:02.868Z,43.95
2023-03-17T14:54:13.922Z,45.02
2023-03-17T14:59:36.018Z,47.01
2023-03-17T15:04:53.326Z,48.40
2023-03-17T15:10:07.344Z,48.32
2023-03-17T15:15:23.491Z,49.30
2023-03-17T15:20:25.356Z,48.35
2023-03-17T15:25:34.451Z,48.34
2023-03-17T15:30:48.245Z,48.24
2023-03-17T15:35:52.814Z,49.00
2023-03-17T15:40:57.411Z,48.84
2023-03-17T15:46:04.723Z,50.53
2023-03-17T15:51:10.207Z,50.98
2023-03-17T15:56:19.132Z,50.01
2023-03-17T16:01:25.112Z,50.15
2023-03-17T16:06:28.297Z,51.48
2023-03-17T16:11:31.421Z,52.27
2023-03-17T16:16:37.565Z,54.36
2023-03-17T16:21:39.682Z,54.42
2023-03-17T16:26:41.373Z,56.97
2023-03-17T16:31:45.164Z,58.12
2023-03-17T16:36:48.433Z,58.12
2023-03-17T16:41:55.014Z,59.77
2023-03-17T16:46:56.870Z,60.79
2023-03-17T16:52:00.871Z,61.66
2023-03-17T16:57:02.571Z,63.44
2023-03-17T17:02:04.479Z,63.91
2023-03-17T17:07:08.606Z,64.39
2023-03-17T17:12:12.829Z,63.77
2023-03-17T17:17:14.816Z,64.06
2023-03-17T17:22:22.109Z,64.08
2023-03-17T17:27:28.406Z,64.58
2023-03-17T17:32:32.367Z,64.90
2023-03-17T17:37:34.519Z,64.54
2023-03-17T17:42:36.258Z,65.43
2023-03-17T17:47:38.325Z,66.04
2023-03-17T17:52:40.076Z,65.56
2023-03-17T17:57:42.070Z,66.30
2023-03-17T18:02:44.344Z,66.73
2023-03-17T18:07:46.209Z,68.17
2023-03-17T18:12:48.891Z,68.27
2023-03-17T18:17:51.549Z,68.99
2023-03-17T18:22:54.077Z,69.53
2023-03-17T18:28:00.901Z,70.51
2023-03-17T18:33:07.357Z,71.15
2023-03-17T18:38:09.146Z,72.30
2023-03-17T18:43:15.413Z,72.03
2023-03-17T18:48:17.270Z,72.15
2023-03-17T18:53:19.000Z,72.67
2023-03-17T18:58:20.789Z,73.22
2023-03-17T19:03:27.392Z,73.78
2023-03-17T19:08:31.636Z,73.72
2023-03-17T19:13:33.925Z,73.71
2023-03-17T19:18:36.771Z,74.10
2023-03-17T19:23:41.500Z,75.14
2023-03-17T19:28:43.604Z,75.26
2023-03-17T19:33:47.993Z,75.52
2023-03-17T19:38:53.012Z,74.22
2023-03-17T19:43:56.807Z,74.32
2023-03-17T19:48:58.654Z,73.82
2023-03-17T19:54:06.145Z,74.68
2023-03-17T19:59:08.977Z,75.42
2023-03-17T20:04:14.098Z,75.39
2023-03-17T20:09:18.117Z,75.50
2023-03-17T20:14:20.821Z,75.63
2023-03-17T20:19:22.607Z,76.55
2023-03-17T20:24:26.933Z,75.96
2023-03-17T20:29:29.240Z,76.09
2023-03-17T20:34:34.671Z,75.66
2023-03-17T20:39:38.896Z,75.88
2023-03-17T20:44:45.265Z,76.35
2023-03-17T20:49:47.923Z,76.88
2023-03-17T20:54:52.683Z,77.13
2023-03-17T20:59:55.957Z,76.70
2023-03-17T21:05:01.179Z,75.66
2023-03-17T21:10:03.121Z,76.50
2023-03-17T21:15:06.166Z,76.34
2023-03-17T21:20:12.689Z,75.93
2023-03-17T21:25:17.819Z,76.49
2023-03-17T21:30:19.472Z,76.52
2023-03-17T21:35:25.106Z,77.37
2023-03-17T21:40:32.380Z,76.67
2023-03-17T21:45:36.891Z,77.17
2023-03-17T21:50:38.658Z,76.53
2023-03-17T21:55:41.515Z,76.58
2023-03-17T22:00:46.306Z,77.16
2023-03-17T22:05:48.399Z,76.99
2023-03-17T22:10:50.090Z,77.38
2023-03-17T22:15:52.618Z,77.52
2023-03-17T22:20:57.720Z,78.14
2023-03-17T22:25:59.399Z,78.41
2023-03-17T22:31:01.885Z,79.48
2023-03-17T22:36:03.731Z,79.32
2023-03-17T22:41:10.374Z,80.68
2023-03-17T22:46:12.921Z,80.99
2023-03-17T22:51:17.472Z,80.60
2023-03-17T22:56:23.180Z,80.68
2023-03-17T23:01:25.802Z,81.15
2023-03-17T23:06:27.783Z,81.81
2023-03-17T23:11:34.215Z,82.53
2023-03-17T23:16:37.623Z,83.06
2023-03-17T23:21:41.923Z,83.45
2023-03-17T23:26:45.845Z,83.71
2023-03-17T23:31:49.989Z,83.52
2023-03-17T23:36:54.116Z,82.75
2023-03-17T23:41:55.868Z,82.60
2023-03-17T23:47:02.634Z,82.67
2023-03-17T23:52:05.250Z,83.19
2023-03-17T23:57:09.249Z,82.19
